Strathclair, Canada
Current Conditions -  °F | °C
As of 10:00 PM on Wednesday 22 Oct 2014 (Local Time) from CYBR Reporting Station
Overcast Overcast  
Wind Chill: 54°   Ceiling: 2900
Heat Index: 54°   Visibility: 15mi
Dew Point: 46°   Wind: 14mph
Humidity: 77%   Direction: 250°WSW
Pressure: 29.74"   Gusts: NA
Location:  50.4°N, 100.4°W
Report Text: CYBR 230300Z 25012KT 15SM BKN029 OVC045 12/08 A2974 RMK SC5SC3 SLP079 DENSITY ALT 1400FT
Loading
Personal Weather Stations






























Interactive Weather Map
Tropical Storm Tracking
New forecast layout! Learn more

10-Day Weather Forecast

Advertisements
Track Severe Weather on mobile